createdAt,value
2019-05-25T00:03:19.693Z,19.40
2019-05-25T00:05:49.557Z,19.30
2019-05-25T00:08:19.460Z,19.30
2019-05-25T00:10:49.274Z,19.30
2019-05-25T00:13:19.083Z,19.20
2019-05-25T00:15:48.882Z,19.20
2019-05-25T00:18:28.703Z,19.20
2019-05-25T00:20:58.462Z,19.20
2019-05-25T00:23:28.237Z,19.20
2019-05-25T00:25:58.119Z,19.20
2019-05-25T00:28:29.922Z,19.20
2019-05-25T00:30:59.768Z,19.20
2019-05-25T00:33:29.645Z,19.10
2019-05-25T00:35:59.442Z,19.10
2019-05-25T00:38:29.268Z,19.10
2019-05-25T00:41:00.064Z,19.10
2019-05-25T00:43:30.964Z,19.10
2019-05-25T00:46:00.796Z,19.10
2019-05-25T00:48:31.661Z,19.10
2019-05-25T00:51:01.471Z,19.10
2019-05-25T00:53:35.905Z,19.00
2019-05-25T00:56:05.772Z,19.00
2019-05-25T00:58:38.979Z,19.00
2019-05-25T01:01:08.846Z,19.00
2019-05-25T01:03:38.726Z,19.00
2019-05-25T01:06:08.484Z,19.00
2019-05-25T01:08:40.274Z,18.90
2019-05-25T01:11:10.060Z,18.90
2019-05-25T01:13:39.880Z,18.90
2019-05-25T01:16:09.765Z,18.90
2019-05-25T01:18:39.652Z,18.90
2019-05-25T01:21:09.467Z,18.80
2019-05-25T01:23:39.279Z,18.80
2019-05-25T01:26:09.163Z,18.80
2019-05-25T01:29:10.173Z,18.80
2019-05-25T01:31:40.035Z,18.80
2019-05-25T01:34:09.852Z,18.70
2019-05-25T01:36:39.642Z,18.80
2019-05-25T01:39:27.470Z,18.70
2019-05-25T01:41:57.306Z,18.70
2019-05-25T01:44:27.053Z,18.70
2019-05-25T01:46:56.905Z,18.70
2019-05-25T01:49:46.770Z,18.60
2019-05-25T01:52:16.628Z,18.60
2019-05-25T01:54:59.026Z,18.60
2019-05-25T01:57:17.932Z,18.60
2019-05-25T01:59:50.800Z,18.60
2019-05-25T02:02:23.678Z,18.50
2019-05-25T02:04:55.023Z,18.60
2019-05-25T02:07:24.816Z,18.50
2019-05-25T02:09:57.214Z,18.50
2019-05-25T02:12:26.995Z,18.50
2019-05-25T02:14:56.745Z,18.40
2019-05-25T02:17:26.526Z,18.50
2019-05-25T02:19:58.381Z,18.40
2019-05-25T02:22:28.248Z,18.40
2019-05-25T02:24:58.052Z,18.40
2019-05-25T02:27:27.840Z,18.40
2019-05-25T02:29:57.721Z,18.40
2019-05-25T02:32:27.517Z,18.30
2019-05-25T02:34:58.342Z,18.30
2019-05-25T02:37:29.171Z,18.30
2019-05-25T02:39:58.965Z,18.30
2019-05-25T02:42:28.823Z,18.30
2019-05-25T02:44:58.706Z,18.20
2019-05-25T02:47:28.436Z,18.30
2019-05-25T02:50:03.128Z,18.20
2019-05-25T02:52:32.913Z,18.20
2019-05-25T02:55:02.720Z,18.20
2019-05-25T02:57:32.511Z,18.20
2019-05-25T03:00:09.024Z,18.20
2019-05-25T03:02:40.187Z,18.20
2019-05-25T03:05:12.705Z,18.10
2019-05-25T03:07:43.953Z,18.10
2019-05-25T03:10:14.886Z,18.10
2019-05-25T03:12:45.649Z,18.10
2019-05-25T03:15:15.523Z,18.10
2019-05-25T03:17:45.320Z,18.10
2019-05-25T03:20:15.229Z,18.00
2019-05-25T03:22:45.026Z,18.00
2019-05-25T03:25:14.720Z,18.10
2019-05-25T03:27:44.578Z,18.00
2019-05-25T03:30:14.682Z,18.00
2019-05-25T03:32:45.735Z,18.00
2019-05-25T03:35:15.616Z,18.00
2019-05-25T03:37:45.460Z,18.00
2019-05-25T03:40:15.269Z,17.90
2019-05-25T03:42:45.083Z,17.90
2019-05-25T03:45:16.268Z,17.90
2019-05-25T03:47:46.012Z,17.90
2019-05-25T03:50:15.784Z,17.90
2019-05-25T03:52:45.584Z,17.90
2019-05-25T03:55:15.499Z,17.80
2019-05-25T03:57:45.360Z,17.90
2019-05-25T04:00:15.545Z,17.80
2019-05-25T04:02:45.324Z,17.80
2019-05-25T04:05:15.239Z,17.80
2019-05-25T04:07:45.038Z,17.80
2019-05-25T04:10:17.759Z,17.80
2019-05-25T04:12:47.623Z,17.80
2019-05-25T04:15:17.511Z,17.70
2019-05-25T04:17:48.352Z,17.70
2019-05-25T04:20:18.684Z,17.70
2019-05-25T04:22:48.546Z,17.70
2019-05-25T04:25:36.310Z,17.70
2019-05-25T04:28:06.138Z,17.70
2019-05-25T04:30:36.005Z,17.70
2019-05-25T04:33:05.857Z,17.60
2019-05-25T04:35:35.731Z,17.60
2019-05-25T04:38:06.644Z,17.60
2019-05-25T04:40:38.393Z,17.60
2019-05-25T04:43:09.848Z,17.60
2019-05-25T04:45:39.721Z,17.60
2019-05-25T04:48:15.342Z,17.60
2019-05-25T04:50:45.079Z,17.60
2019-05-25T04:53:14.853Z,17.60
2019-05-25T04:55:44.632Z,17.60
2019-05-25T04:58:17.772Z,17.60
2019-05-25T05:00:47.447Z,17.60
2019-05-25T05:03:17.283Z,17.60
2019-05-25T05:05:47.081Z,17.60
2019-05-25T05:08:17.972Z,17.60
2019-05-25T05:10:47.797Z,17.60
2019-05-25T05:13:17.587Z,17.60
2019-05-25T05:15:47.443Z,17.60
2019-05-25T05:18:21.685Z,17.60
2019-05-25T05:20:51.440Z,17.50
2019-05-25T05:23:21.251Z,17.60
2019-05-25T05:25:51.047Z,17.50
2019-05-25T05:28:20.906Z,17.60
2019-05-25T05:30:50.709Z,17.50
2019-05-25T05:33:20.589Z,17.50
2019-05-25T05:35:50.707Z,17.50
2019-05-25T05:38:25.287Z,17.50
2019-05-25T05:40:56.779Z,17.50
2019-05-25T05:43:29.187Z,17.50
2019-05-25T05:46:01.056Z,17.50
2019-05-25T05:48:38.515Z,17.50
2019-05-25T05:51:10.337Z,17.50
2019-05-25T05:53:51.557Z,17.50
2019-05-25T05:56:21.411Z,17.50
2019-05-25T05:59:05.757Z,17.50
2019-05-25T06:01:37.224Z,17.50
2019-05-25T06:04:06.982Z,17.50
2019-05-25T06:06:36.648Z,17.50
2019-05-25T06:09:24.334Z,17.50
2019-05-25T06:11:54.177Z,17.50
2019-05-25T06:14:28.479Z,17.50
2019-05-25T06:17:02.547Z,17.50
2019-05-25T06:19:35.652Z,17.50
2019-05-25T06:22:05.530Z,17.50
2019-05-25T06:24:35.426Z,17.50
2019-05-25T06:27:05.399Z,17.50
2019-05-25T06:33:00.494Z,17.40
2019-05-25T06:35:31.569Z,17.50
2019-05-25T06:38:08.427Z,17.40
2019-05-25T06:40:42.242Z,17.50
2019-05-25T06:43:12.048Z,17.50
2019-05-25T06:45:43.202Z,17.50
2019-05-25T06:48:49.514Z,17.50
2019-05-25T06:51:19.299Z,17.50
2019-05-25T06:53:49.171Z,17.50
2019-05-25T06:56:18.963Z,17.50
2019-05-25T06:58:51.857Z,17.40
2019-05-25T07:01:21.713Z,17.40
2019-05-25T07:03:51.602Z,17.40
2019-05-25T07:06:23.021Z,17.40
2019-05-25T07:09:27.855Z,17.40
2019-05-25T07:12:02.637Z,17.40
2019-05-25T07:14:35.215Z,17.40
2019-05-25T07:17:05.011Z,17.50
2019-05-25T07:19:34.881Z,17.50
2019-05-25T07:22:04.897Z,17.50
2019-05-25T07:24:34.671Z,17.50
2019-05-25T07:27:04.532Z,17.50
2019-05-25T07:29:34.419Z,17.50
2019-05-25T07:32:04.299Z,17.50
2019-05-25T07:34:34.148Z,17.50
2019-05-25T07:37:04.008Z,17.60
2019-05-25T07:39:33.940Z,17.50
2019-05-25T07:42:03.723Z,17.60
2019-05-25T07:44:33.511Z,17.50
2019-05-25T07:47:03.231Z,17.60
2019-05-25T07:49:51.047Z,17.60
2019-05-25T07:52:20.824Z,17.60
2019-05-25T07:54:50.626Z,17.60
2019-05-25T07:57:20.440Z,17.60
2019-05-25T07:59:50.299Z,17.60
2019-05-25T08:02:20.145Z,17.60
2019-05-25T08:04:49.927Z,17.60
2019-05-25T08:07:19.583Z,17.60
2019-05-25T08:09:53.343Z,17.60
2019-05-25T08:12:24.082Z,17.60
2019-05-25T08:14:53.864Z,17.60
2019-05-25T08:17:28.604Z,17.60
2019-05-25T08:20:01.344Z,17.60
2019-05-25T08:22:31.145Z,17.60
2019-05-25T08:25:00.980Z,17.70
2019-05-25T08:27:38.115Z,17.70
2019-05-25T08:30:14.738Z,17.70
2019-05-25T08:32:44.598Z,17.70
2019-05-25T08:35:14.647Z,17.70
2019-05-25T08:37:46.093Z,17.80
2019-05-25T08:40:15.935Z,17.80
2019-05-25T08:42:45.790Z,17.80
2019-05-25T08:45:16.011Z,17.80
2019-05-25T08:47:46.802Z,17.80
2019-05-25T08:50:16.638Z,17.80
2019-05-25T08:52:48.962Z,17.80
2019-05-25T08:55:19.728Z,17.80
2019-05-25T08:57:49.576Z,17.90
2019-05-25T09:00:19.793Z,17.80
2019-05-25T09:02:49.624Z,17.90
2019-05-25T09:05:19.498Z,17.90
2019-05-25T09:07:49.334Z,17.90
2019-05-25T09:10:19.419Z,17.90
2019-05-25T09:12:49.360Z,17.90
2019-05-25T09:15:20.079Z,17.90
2019-05-25T09:17:49.963Z,17.90
2019-05-25T09:20:19.915Z,17.90
2019-05-25T09:22:50.799Z,17.90
2019-05-25T09:25:20.653Z,17.90
2019-05-25T09:27:50.573Z,17.90
2019-05-25T09:30:20.606Z,17.90
2019-05-25T09:32:54.008Z,17.90
2019-05-25T09:35:23.873Z,17.90
2019-05-25T09:37:53.829Z,18.00
2019-05-25T09:40:27.966Z,18.00
2019-05-25T09:42:57.785Z,18.00
2019-05-25T09:45:27.702Z,18.00
2019-05-25T09:47:57.573Z,18.00
2019-05-25T09:50:27.454Z,18.00
2019-05-25T09:52:57.252Z,18.00
2019-05-25T09:55:27.169Z,18.00
2019-05-25T09:57:57.033Z,18.10
2019-05-25T10:00:26.969Z,18.10
2019-05-25T10:02:56.979Z,18.10
2019-05-25T10:05:26.889Z,18.20
2019-05-25T10:07:56.753Z,18.20
2019-05-25T10:10:26.734Z,18.20
2019-05-25T10:12:56.582Z,18.30
2019-05-25T10:15:28.390Z,18.30
2019-05-25T10:17:58.045Z,18.30
2019-05-25T10:20:30.414Z,18.30
2019-05-25T10:23:01.704Z,18.30
2019-05-25T10:25:36.553Z,18.30
2019-05-25T10:28:09.244Z,18.30
2019-05-25T10:30:39.497Z,18.30
2019-05-25T10:33:09.397Z,18.30
2019-05-25T10:35:39.359Z,18.30
2019-05-25T10:38:11.989Z,18.40
2019-05-25T10:40:42.994Z,18.40
2019-05-25T10:43:12.809Z,18.40
2019-05-25T10:45:44.972Z,18.40
2019-05-25T10:48:15.059Z,18.40
2019-05-25T10:50:45.009Z,18.40
2019-05-25T10:53:17.880Z,18.40
2019-05-25T10:55:47.865Z,18.40
2019-05-25T10:58:19.812Z,18.50
2019-05-25T11:00:50.461Z,18.40
2019-05-25T11:03:20.341Z,18.40
2019-05-25T11:05:52.127Z,18.40
2019-05-25T11:08:23.195Z,18.50
2019-05-25T11:10:53.153Z,18.40
2019-05-25T11:13:23.022Z,18.50
2019-05-25T11:15:52.917Z,18.50
2019-05-25T11:18:22.923Z,18.50
2019-05-25T11:20:53.935Z,18.50
2019-05-25T11:23:23.753Z,18.50
2019-05-25T11:25:53.667Z,18.50
2019-05-25T11:28:27.760Z,18.60
2019-05-25T11:30:57.628Z,18.60
2019-05-25T11:33:27.474Z,18.60
2019-05-25T11:35:57.345Z,18.60
2019-05-25T11:38:28.253Z,18.60
2019-05-25T11:40:58.175Z,18.70
2019-05-25T11:43:28.025Z,18.70
2019-05-25T11:45:58.030Z,18.70
2019-05-25T11:48:27.932Z,18.70
2019-05-25T11:50:57.860Z,18.70
2019-05-25T11:53:27.680Z,18.70
2019-05-25T11:55:57.581Z,18.70
2019-05-25T11:58:27.495Z,18.70
2019-05-25T12:00:58.469Z,18.70
2019-05-25T12:03:28.367Z,18.70
2019-05-25T12:05:58.768Z,18.70
2019-05-25T12:08:28.665Z,18.70
2019-05-25T12:10:58.629Z,18.70
2019-05-25T12:13:31.958Z,18.80
2019-05-25T12:15:59.923Z,18.90
2019-05-25T12:18:29.826Z,18.90
2019-05-25T12:20:59.743Z,18.90
2019-05-25T12:23:31.168Z,19.00
2019-05-25T12:26:01.062Z,19.00
2019-05-25T12:28:34.046Z,19.00
2019-05-25T12:31:03.841Z,19.10
2019-05-25T12:33:33.730Z,19.10
2019-05-25T12:36:04.513Z,19.10
2019-05-25T12:38:58.284Z,19.20
2019-05-25T12:41:29.094Z,19.30
2019-05-25T12:43:58.962Z,19.30
2019-05-25T12:46:28.727Z,19.40
2019-05-25T12:48:58.676Z,19.50
2019-05-25T12:51:28.475Z,19.50
2019-05-25T12:53:58.363Z,19.50
2019-05-25T12:56:28.241Z,19.60
2019-05-25T12:58:58.143Z,19.60
2019-05-25T13:01:28.015Z,19.60
2019-05-25T13:03:57.878Z,19.60
2019-05-25T13:06:29.102Z,19.60
2019-05-25T13:09:04.884Z,19.60
2019-05-25T13:11:42.619Z,19.50
2019-05-25T13:14:15.003Z,19.60
2019-05-25T13:16:45.081Z,19.60
2019-05-25T13:19:16.219Z,19.60
2019-05-25T13:21:46.153Z,19.60
2019-05-25T13:24:16.027Z,19.70
2019-05-25T13:26:45.930Z,19.70
2019-05-25T13:29:15.796Z,19.70
2019-05-25T13:31:45.663Z,19.70
2019-05-25T13:34:15.523Z,19.70
2019-05-25T13:36:45.440Z,19.80
2019-05-25T13:39:20.730Z,19.80
2019-05-25T13:41:51.363Z,19.80
2019-05-25T13:44:21.187Z,19.80
2019-05-25T13:46:51.230Z,19.80
2019-05-25T13:49:21.095Z,19.80
2019-05-25T13:51:52.641Z,19.80
2019-05-25T13:54:22.464Z,19.80
2019-05-25T13:56:52.456Z,19.80
2019-05-25T13:59:28.208Z,19.80
2019-05-25T14:02:03.037Z,19.80
2019-05-25T14:04:35.386Z,19.90
2019-05-25T14:07:16.294Z,19.80
2019-05-25T14:16:29.750Z,19.80
2019-05-25T14:19:02.202Z,19.80
2019-05-25T14:21:32.096Z,19.80
2019-05-25T14:24:01.960Z,19.80
2019-05-25T14:26:31.844Z,19.80
2019-05-25T14:29:03.590Z,19.90
2019-05-25T14:31:45.102Z,19.90
2019-05-25T14:34:11.260Z,19.90
2019-05-25T14:36:41.084Z,19.90
2019-05-25T14:39:10.821Z,19.90
2019-05-25T14:41:40.533Z,19.90
2019-05-25T14:44:10.343Z,19.90
2019-05-25T14:46:40.107Z,19.90
2019-05-25T14:49:09.773Z,19.90
2019-05-25T14:51:39.618Z,19.90
2019-05-25T14:54:09.504Z,19.90
2019-05-25T14:56:39.360Z,19.90
2019-05-25T14:59:09.226Z,19.90
2019-05-25T15:01:39.009Z,19.90
2019-05-25T15:04:08.808Z,20.00
2019-05-25T15:06:38.644Z,19.90
2019-05-25T15:09:12.433Z,20.00
2019-05-25T15:11:43.688Z,20.00
2019-05-25T15:14:13.469Z,20.00
2019-05-25T15:16:43.245Z,20.00
2019-05-25T15:19:16.897Z,20.00
2019-05-25T15:21:47.156Z,20.00
2019-05-25T15:24:17.204Z,20.00
2019-05-25T15:26:48.189Z,20.00
2019-05-25T15:29:27.738Z,20.00
2019-05-25T15:31:57.537Z,20.00
2019-05-25T15:34:27.316Z,20.10
2019-05-25T15:36:57.082Z,20.10
2019-05-25T15:39:30.349Z,20.10
2019-05-25T15:42:00.127Z,20.10
2019-05-25T15:44:29.903Z,20.10
2019-05-25T15:46:59.809Z,20.10
2019-05-25T15:49:42.039Z,20.10
2019-05-25T15:52:18.063Z,20.10
2019-05-25T15:54:47.857Z,20.10
2019-05-25T15:57:18.708Z,20.10
2019-05-25T15:59:51.887Z,20.10
2019-05-25T16:02:35.652Z,20.10
2019-05-25T16:04:53.111Z,20.10
2019-05-25T16:07:22.983Z,20.10
2019-05-25T16:09:54.752Z,20.10
2019-05-25T16:12:24.521Z,20.20
2019-05-25T16:14:54.374Z,20.20
2019-05-25T16:17:26.172Z,20.20
2019-05-25T16:20:07.395Z,20.20
2019-05-25T16:22:37.067Z,20.20
2019-05-25T16:25:08.896Z,20.20
2019-05-25T16:27:47.405Z,20.20
2019-05-25T16:30:17.493Z,20.20
2019-05-25T16:33:10.927Z,20.20
2019-05-25T16:35:18.811Z,20.20
2019-05-25T16:37:48.914Z,20.20
2019-05-25T16:40:19.072Z,20.20
2019-05-25T16:42:48.928Z,20.20
2019-05-25T16:45:18.971Z,20.20
2019-05-25T16:47:48.768Z,20.30
2019-05-25T16:50:18.903Z,20.30
2019-05-25T16:52:48.760Z,20.30
2019-05-25T16:55:18.683Z,20.20
2019-05-25T16:57:48.410Z,20.30
2019-05-25T17:00:29.369Z,20.30
2019-05-25T17:02:59.602Z,20.20
2019-05-25T17:05:29.398Z,20.20
2019-05-25T17:07:59.204Z,20.20
2019-05-25T17:10:29.081Z,20.20
2019-05-25T17:12:58.829Z,20.30
2019-05-25T17:15:28.680Z,20.30
2019-05-25T17:17:59.457Z,20.20
2019-05-25T17:20:29.240Z,20.30
2019-05-25T17:22:59.085Z,20.20
2019-05-25T17:25:28.927Z,20.30
2019-05-25T17:28:01.302Z,20.30
2019-05-25T17:30:45.380Z,20.20
2019-05-25T17:33:15.412Z,20.30
2019-05-25T17:35:45.200Z,20.30
2019-05-25T17:38:24.572Z,20.30
2019-05-25T17:40:54.268Z,20.30
2019-05-25T17:43:24.062Z,20.30
2019-05-25T17:45:53.784Z,20.30
2019-05-25T17:48:23.609Z,20.30
2019-05-25T17:50:53.330Z,20.30
2019-05-25T17:53:23.711Z,20.30
2019-05-25T17:55:54.524Z,20.30
2019-05-25T17:58:24.264Z,20.30
2019-05-25T18:00:54.053Z,20.30
2019-05-25T18:03:23.812Z,20.30
2019-05-25T18:05:55.951Z,20.40
2019-05-25T18:08:29.256Z,20.40
2019-05-25T18:11:00.842Z,20.40
2019-05-25T18:13:32.178Z,20.40
2019-05-25T18:16:02.012Z,20.40
2019-05-25T18:18:33.001Z,20.30
2019-05-25T18:21:02.842Z,20.30
2019-05-25T18:23:32.693Z,20.40
2019-05-25T18:26:02.426Z,20.30
2019-05-25T18:28:32.294Z,20.30
2019-05-25T18:31:02.033Z,20.30
2019-05-25T18:33:31.812Z,20.30
2019-05-25T18:36:01.480Z,20.30
2019-05-25T18:38:37.565Z,20.30
2019-05-25T18:41:07.300Z,20.30
2019-05-25T18:43:37.165Z,20.30
2019-05-25T18:46:06.955Z,20.30
2019-05-25T18:48:36.826Z,20.30
2019-05-25T18:51:06.611Z,20.30
2019-05-25T18:53:36.389Z,20.30
2019-05-25T18:56:06.268Z,20.30
2019-05-25T18:58:36.152Z,20.20
2019-05-25T19:01:05.989Z,20.20
2019-05-25T19:03:35.783Z,20.20
2019-05-25T19:06:05.555Z,20.20
2019-05-25T19:08:40.901Z,20.20
2019-05-25T19:11:10.682Z,20.20
2019-05-25T19:13:40.527Z,20.20
2019-05-25T19:16:10.341Z,20.20
2019-05-25T19:18:41.148Z,20.20
2019-05-25T19:21:11.981Z,20.20
2019-05-25T19:23:41.762Z,20.20
2019-05-25T19:26:11.582Z,20.20
2019-05-25T19:28:41.493Z,20.20
2019-05-25T19:31:11.327Z,20.20
2019-05-25T19:33:41.195Z,20.20
2019-05-25T19:36:10.928Z,20.20
2019-05-25T19:38:42.775Z,20.20
2019-05-25T19:41:12.581Z,20.10
2019-05-25T19:43:42.463Z,20.10
2019-05-25T19:46:12.281Z,20.10
2019-05-25T19:49:00.200Z,20.10
2019-05-25T19:51:29.998Z,20.10
2019-05-25T19:53:59.841Z,20.10
2019-05-25T19:56:29.571Z,20.10
2019-05-25T19:58:59.412Z,20.10
2019-05-25T20:01:29.147Z,20.10
2019-05-25T20:03:59.630Z,20.10
2019-05-25T20:06:29.348Z,20.00
2019-05-25T20:08:59.192Z,20.00
2019-05-25T20:11:28.991Z,20.00
2019-05-25T20:13:58.833Z,20.00
2019-05-25T20:16:28.599Z,20.00
2019-05-25T20:18:58.395Z,20.00
2019-05-25T20:21:28.243Z,20.00
2019-05-25T20:23:58.126Z,20.00
2019-05-25T20:26:27.957Z,20.00
2019-05-25T20:28:59.496Z,19.90
2019-05-25T20:31:29.184Z,19.90
2019-05-25T20:33:59.995Z,19.90
2019-05-25T20:36:29.735Z,19.90
2019-05-25T20:39:38.787Z,19.90
2019-05-25T20:42:15.304Z,19.90
2019-05-25T20:44:47.944Z,19.90
2019-05-25T20:47:23.182Z,19.90
2019-05-25T20:49:55.980Z,19.90
2019-05-25T20:52:25.707Z,19.80
2019-05-25T20:54:55.416Z,19.80
2019-05-25T20:57:25.241Z,19.80
2019-05-25T20:59:55.079Z,19.80
2019-05-25T21:02:25.921Z,19.80
2019-05-25T21:05:13.496Z,19.70
2019-05-25T21:07:44.428Z,19.70
2019-05-25T21:10:14.306Z,19.70
2019-05-25T21:12:44.599Z,19.70
2019-05-25T21:15:14.559Z,19.70
2019-05-25T21:17:44.445Z,19.70
2019-05-25T21:20:14.482Z,19.60
2019-05-25T21:22:44.254Z,19.60
2019-05-25T21:25:14.009Z,19.60
2019-05-25T21:27:44.539Z,19.60
2019-05-25T21:30:16.231Z,19.60
2019-05-25T21:32:46.003Z,19.60
2019-05-25T21:35:21.248Z,19.50
2019-05-25T21:37:51.038Z,19.60
2019-05-25T21:40:20.846Z,19.50
2019-05-25T21:42:51.693Z,19.50
2019-05-25T21:45:21.675Z,19.50
2019-05-25T21:47:56.104Z,19.50
2019-05-25T21:50:23.984Z,19.50
2019-05-25T21:52:53.793Z,19.40
2019-05-25T21:55:23.648Z,19.40
2019-05-25T21:57:53.414Z,19.40
2019-05-25T22:00:25.554Z,19.40
2019-05-25T22:02:56.951Z,19.40
2019-05-25T22:05:30.048Z,19.40
2019-05-25T22:08:03.839Z,19.30
2019-05-25T22:10:33.718Z,19.40
2019-05-25T22:13:03.576Z,19.30
2019-05-25T22:15:33.347Z,19.30
2019-05-25T22:18:03.218Z,19.30
2019-05-25T22:20:32.994Z,19.30
2019-05-25T22:23:02.797Z,19.30
2019-05-25T22:25:32.628Z,19.20
2019-05-25T22:28:07.963Z,19.20
2019-05-25T22:30:37.745Z,19.20
2019-05-25T22:33:07.478Z,19.20
2019-05-25T22:35:37.315Z,19.20
2019-05-25T22:38:44.340Z,19.10
2019-05-25T22:41:14.121Z,19.10
2019-05-25T22:43:45.145Z,19.10
2019-05-25T22:46:15.875Z,19.10
2019-05-25T22:48:52.404Z,19.10
2019-05-25T22:51:22.187Z,19.00
2019-05-25T22:53:52.071Z,19.00
2019-05-25T22:56:21.933Z,19.00
2019-05-25T22:58:53.689Z,18.90
2019-05-25T23:01:23.551Z,18.90
2019-05-25T23:04:11.552Z,18.90
2019-05-25T23:06:56.962Z,18.90
2019-05-25T23:09:16.397Z,18.90
2019-05-25T23:11:46.255Z,18.80
2019-05-25T23:14:19.031Z,18.80
2019-05-25T23:16:48.876Z,18.70
2019-05-25T23:19:55.144Z,18.70
2019-05-25T23:22:24.911Z,18.70
2019-05-25T23:25:01.377Z,18.70
2019-05-25T23:27:31.255Z,18.70
2019-05-25T23:30:01.084Z,18.70
2019-05-25T23:32:31.009Z,18.70
2019-05-25T23:35:02.276Z,18.70
2019-05-25T23:37:32.040Z,18.60
2019-05-25T23:40:20.051Z,18.60
2019-05-25T23:42:49.948Z,18.60
2019-05-25T23:45:21.323Z,18.60
2019-05-25T23:47:51.183Z,18.60
2019-05-25T23:50:21.062Z,18.50
2019-05-25T23:52:50.932Z,18.50
2019-05-25T23:55:23.517Z,18.50
2019-05-25T23:57:53.380Z,18.50
